Time;durP1;ratioP1;P1;durP2;ratioP2;P2;SDS_P1;SDS_P2;PMS_P1;PMS_P2;Temp;Humidity;BMP_temperature;BMP_pressure;BME280_temperature;BME280_humidity;BME280_pressure;Samples;Min_cycle;Max_cycle;Signal;HPM_P1;HPM_P2
2021/06/26 00:00:54;;;;;;;9.65;6.57;;;19.10;99.90;;;;;;6011146;23;20466;-89
2021/06/26 00:03:23;;;;;;;8.65;6.80;;;19.10;99.90;;;;;;6036939;23;20428;-89
2021/06/26 00:05:49;;;;;;;7.38;6.13;;;19.10;99.90;;;;;;6036615;23;20424;-89
2021/06/26 00:08:16;;;;;;;6.72;6.13;;;19.10;99.90;;;;;;6037197;23;20135;-90
2021/06/26 00:10:43;;;;;;;10.60;6.18;;;19.10;99.90;;;;;;6035998;23;20451;-89
2021/06/26 00:13:09;;;;;;;8.95;6.05;;;19.00;99.90;;;;;;6011938;23;20026;-89
2021/06/26 00:15:35;;;;;;;8.23;6.40;;;19.00;99.90;;;;;;6037624;23;20629;-89
2021/06/26 00:18:01;;;;;;;9.32;6.40;;;19.00;99.90;;;;;;6012094;23;20004;-90
2021/06/26 00:20:27;;;;;;;8.13;6.22;;;19.10;99.90;;;;;;6014978;23;20388;-89
2021/06/26 00:22:53;;;;;;;10.38;5.95;;;19.00;99.90;;;;;;6041096;23;20011;-90
2021/06/26 00:25:22;;;;;;;7.75;6.75;;;19.00;99.90;;;;;;6013534;23;20003;-89
2021/06/26 00:27:47;;;;;;;11.85;6.35;;;19.00;99.90;;;;;;6037675;23;20111;-90
2021/06/26 00:30:13;;;;;;;9.90;6.47;;;19.00;99.90;;;;;;6038360;23;20051;-90
2021/06/26 00:32:39;;;;;;;8.90;6.22;;;18.90;99.90;;;;;;6038734;23;20003;-89
2021/06/26 00:35:05;;;;;;;8.43;6.95;;;18.90;99.90;;;;;;6037724;23;20019;-88
2021/06/26 00:37:31;;;;;;;9.43;6.72;;;19.00;99.90;;;;;;6037935;23;20007;-90
2021/06/26 00:39:57;;;;;;;7.93;7.20;;;18.90;99.90;;;;;;6038228;23;20503;-89
2021/06/26 00:42:22;;;;;;;10.20;7.03;;;18.90;99.90;;;;;;6037097;23;20030;-90
2021/06/26 00:44:48;;;;;;;8.05;7.07;;;19.00;99.90;;;;;;6037387;23;20336;-90
2021/06/26 00:47:14;;;;;;;8.75;7.20;;;19.00;99.90;;;;;;6038858;23;20007;-89
2021/06/26 00:49:40;;;;;;;9.40;7.75;;;18.90;99.90;;;;;;6038159;23;20014;-90
2021/06/26 00:52:07;;;;;;;12.57;7.63;;;18.90;99.90;;;;;;6036402;23;20325;-88
2021/06/26 00:54:33;;;;;;;13.43;7.60;;;19.00;99.90;;;;;;6038514;23;20003;-88
2021/06/26 00:57:00;;;;;;;8.15;7.35;;;18.90;99.90;;;;;;6037376;23;20008;-89
2021/06/26 00:59:27;;;;;;;8.70;7.63;;;18.90;99.90;;;;;;6038216;23;20082;-88
2021/06/26 01:01:52;;;;;;;9.95;7.28;;;18.90;99.90;;;;;;6038306;23;20035;-90
2021/06/26 01:04:18;;;;;;;10.75;7.18;;;18.90;99.90;;;;;;6037835;23;20014;-89
2021/06/26 01:06:44;;;;;;;13.30;7.35;;;18.90;99.90;;;;;;6037822;23;20003;-90
2021/06/26 01:09:09;;;;;;;11.40;8.15;;;18.90;99.90;;;;;;6037764;23;20012;-89
2021/06/26 01:11:35;;;;;;;8.27;7.32;;;18.90;99.90;;;;;;6037436;23;20041;-90
2021/06/26 01:14:02;;;;;;;8.35;7.25;;;18.90;99.90;;;;;;6038393;23;20332;-89
2021/06/26 01:16:28;;;;;;;9.55;7.90;;;19.00;99.90;;;;;;6038062;23;20078;-88
2021/06/26 01:18:54;;;;;;;12.02;7.45;;;19.00;99.90;;;;;;6037884;23;20003;-90
2021/06/26 01:21:19;;;;;;;8.73;7.53;;;18.90;99.90;;;;;;6038151;23;20074;-88
2021/06/26 01:23:53;;;;;;;9.60;6.85;;;18.90;99.90;;;;;;6036767;23;20014;-90
2021/06/26 01:26:21;;;;;;;8.10;6.88;;;19.00;99.90;;;;;;6012103;23;20226;-89
2021/06/26 01:28:47;;;;;;;8.25;7.35;;;19.00;99.90;;;;;;6037058;23;20003;-89
2021/06/26 01:31:13;;;;;;;11.82;7.20;;;19.00;99.90;;;;;;6012022;23;20019;-91
2021/06/26 01:33:38;;;;;;;8.68;7.78;;;19.00;99.90;;;;;;6039016;23;20074;-90
2021/06/26 01:36:04;;;;;;;8.25;6.65;;;19.00;99.90;;;;;;6038815;23;20091;-90
2021/06/26 01:38:30;;;;;;;7.28;6.57;;;19.00;99.90;;;;;;6037670;23;20007;-88
2021/06/26 01:40:56;;;;;;;11.55;7.28;;;19.00;99.90;;;;;;6038104;23;20083;-90
2021/06/26 01:43:21;;;;;;;7.25;6.18;;;19.00;99.90;;;;;;6037773;23;20003;-90
2021/06/26 01:45:47;;;;;;;6.43;5.38;;;19.10;99.90;;;;;;6037782;23;20031;-89
2021/06/26 01:48:13;;;;;;;8.15;5.80;;;19.10;99.90;;;;;;6036727;23;20628;-91
2021/06/26 01:50:39;;;;;;;6.72;5.00;;;19.10;99.90;;;;;;6037450;23;20512;-90
2021/06/26 01:53:04;;;;;;;7.78;5.13;;;19.10;99.90;;;;;;6038000;23;20872;-89
2021/06/26 01:55:30;;;;;;;5.60;4.57;;;19.00;99.90;;;;;;6037926;23;20066;-90
2021/06/26 01:57:57;;;;;;;6.07;5.35;;;19.10;99.90;;;;;;6011767;23;20039;-90
2021/06/26 02:00:24;;;;;;;6.55;4.88;;;19.10;99.90;;;;;;6037747;23;20003;-90
2021/06/26 02:02:51;;;;;;;4.40;3.92;;;19.00;99.90;;;;;;6035756;23;20003;-90
2021/06/26 02:05:18;;;;;;;4.10;3.75;;;19.00;99.90;;;;;;6037249;23;20078;-87
2021/06/26 02:07:47;;;;;;;4.97;4.47;;;19.00;99.90;;;;;;6037878;23;20137;-90
2021/06/26 02:10:13;;;;;;;3.90;3.53;;;19.00;99.90;;;;;;6037846;23;20015;-90
2021/06/26 02:12:40;;;;;;;4.53;3.13;;;19.00;99.90;;;;;;6037466;23;20051;-90
2021/06/26 02:15:07;;;;;;;4.03;3.63;;;19.00;99.90;;;;;;6037617;23;20007;-89
2021/06/26 02:17:32;;;;;;;4.95;3.30;;;19.00;99.90;;;;;;6012432;23;20003;-89
2021/06/26 02:19:58;;;;;;;4.25;3.85;;;19.00;99.90;;;;;;6037248;23;20436;-89
2021/06/26 02:22:24;;;;;;;4.80;3.70;;;19.00;99.90;;;;;;6012467;23;20000;-89
2021/06/26 02:24:49;;;;;;;3.95;3.03;;;19.00;99.90;;;;;;6037953;23;20546;-88
2021/06/26 02:27:15;;;;;;;4.35;3.17;;;19.00;99.90;;;;;;6037686;23;20003;-90
2021/06/26 02:29:41;;;;;;;6.15;3.25;;;18.90;99.90;;;;;;6037324;23;20022;-89
2021/06/26 02:32:07;;;;;;;3.33;2.85;;;18.90;99.90;;;;;;6038092;23;20070;-89
2021/06/26 02:34:33;;;;;;;6.30;2.67;;;18.90;99.90;;;;;;6037225;23;20000;-90
2021/06/26 02:36:59;;;;;;;3.65;2.60;;;18.90;99.90;;;;;;6036240;23;20015;-90
2021/06/26 02:39:24;;;;;;;5.28;3.30;;;18.90;99.90;;;;;;6037609;23;20007;-89
2021/06/26 02:41:50;;;;;;;4.65;2.83;;;18.90;99.90;;;;;;6036608;23;20023;-90
2021/06/26 02:44:16;;;;;;;4.15;2.55;;;18.90;99.90;;;;;;6037293;23;20030;-89
2021/06/26 02:46:42;;;;;;;7.35;3.58;;;18.90;99.90;;;;;;6014752;23;20011;-88
2021/06/26 02:49:08;;;;;;;7.03;3.53;;;18.90;99.90;;;;;;6039378;23;20005;-89
2021/06/26 02:51:33;;;;;;;5.85;2.70;;;18.80;99.90;;;;;;6037821;23;20043;-90
2021/06/26 02:53:59;;;;;;;5.65;3.10;;;18.80;99.90;;;;;;6011218;23;20143;-90
2021/06/26 02:56:25;;;;;;;3.92;3.47;;;18.80;99.90;;;;;;6037516;23;20011;-89
2021/06/26 02:58:50;;;;;;;3.33;2.97;;;18.80;99.90;;;;;;6036598;23;19999;-89
2021/06/26 03:01:16;;;;;;;3.83;2.83;;;18.80;99.90;;;;;;6036552;23;19999;-89
2021/06/26 03:03:42;;;;;;;3.17;2.72;;;18.80;99.90;;;;;;6036215;23;20018;-90
2021/06/26 03:06:07;;;;;;;3.67;3.03;;;18.80;99.90;;;;;;6012953;23;20321;-89
2021/06/26 03:08:33;;;;;;;5.70;3.70;;;18.80;99.90;;;;;;6011442;23;20084;-90
2021/06/26 03:10:59;;;;;;;3.53;3.22;;;18.80;99.90;;;;;;6037288;23;20495;-89
2021/06/26 03:13:24;;;;;;;4.40;3.20;;;18.80;99.90;;;;;;6035953;23;20026;-89
2021/06/26 03:15:50;;;;;;;4.50;3.00;;;18.80;99.90;;;;;;6011007;23;20011;-90
2021/06/26 03:18:16;;;;;;;3.95;3.30;;;18.80;99.90;;;;;;6011360;23;20003;-88
2021/06/26 03:20:42;;;;;;;6.35;2.97;;;18.80;99.90;;;;;;6011383;23;20012;-89
2021/06/26 03:23:08;;;;;;;3.30;3.00;;;18.90;99.90;;;;;;6037341;23;20028;-89
2021/06/26 03:25:34;;;;;;;3.45;3.00;;;18.90;99.90;;;;;;6037604;23;20003;-89
2021/06/26 03:28:00;;;;;;;3.28;2.60;;;19.00;99.90;;;;;;6036955;23;20030;-89
2021/06/26 03:30:25;;;;;;;6.57;3.42;;;19.00;99.90;;;;;;6035822;23;20310;-89
2021/06/26 03:32:51;;;;;;;3.40;3.10;;;19.00;99.90;;;;;;6037147;23;20011;-90
2021/06/26 03:35:17;;;;;;;5.90;2.72;;;19.00;99.90;;;;;;6037568;23;20019;-89
2021/06/26 03:37:43;;;;;;;5.55;3.00;;;18.90;99.90;;;;;;6036436;23;20055;-89
2021/06/26 03:40:09;;;;;;;3.20;2.90;;;19.00;99.90;;;;;;6037569;23;20003;-90
2021/06/26 03:42:35;;;;;;;3.15;2.63;;;19.00;99.90;;;;;;6011920;23;20030;-89
2021/06/26 03:45:03;;;;;;;3.92;3.05;;;19.00;99.90;;;;;;6035442;23;20010;-89
2021/06/26 03:47:29;;;;;;;3.47;3.15;;;19.00;99.90;;;;;;6037609;23;20432;-89
2021/06/26 03:49:55;;;;;;;4.85;3.03;;;18.90;99.90;;;;;;6012874;23;20022;-89
2021/06/26 03:52:20;;;;;;;3.88;3.33;;;18.90;99.90;;;;;;6039160;23;20010;-89
2021/06/26 03:54:46;;;;;;;4.05;3.25;;;18.90;99.90;;;;;;6039449;23;20417;-89
2021/06/26 03:57:12;;;;;;;4.82;2.92;;;19.00;99.90;;;;;;6013237;23;20029;-89
2021/06/26 03:59:37;;;;;;;3.90;3.00;;;19.00;99.90;;;;;;6039355;23;20003;-88
2021/06/26 04:02:06;;;;;;;5.15;3.55;;;19.00;99.90;;;;;;6041370;23;20008;-89
2021/06/26 04:04:34;;;;;;;4.47;4.00;;;18.90;99.90;;;;;;6039434;23;20009;-88
2021/06/26 04:07:00;;;;;;;7.22;4.20;;;19.00;99.90;;;;;;6038937;23;20051;-90
2021/06/26 04:09:25;;;;;;;5.60;3.47;;;19.00;99.90;;;;;;6039065;23;20424;-89
2021/06/26 04:11:51;;;;;;;3.28;2.97;;;19.10;99.90;;;;;;6039374;23;20090;-90
2021/06/26 04:14:16;;;;;;;5.95;3.60;;;19.10;99.90;;;;;;6037102;23;20458;-89
2021/06/26 04:16:42;;;;;;;5.00;3.63;;;19.10;99.90;;;;;;6038568;23;20014;-90
2021/06/26 04:19:08;;;;;;;5.82;3.10;;;19.10;99.90;;;;;;6038416;23;20031;-90
2021/06/26 04:21:33;;;;;;;5.68;3.72;;;19.10;99.90;;;;;;6011997;23;20333;-91
2021/06/26 04:23:59;;;;;;;4.90;4.00;;;19.10;99.90;;;;;;6038915;23;20484;-90
2021/06/26 04:26:25;;;;;;;4.65;3.22;;;19.10;99.90;;;;;;6012658;23;20015;-88
2021/06/26 04:28:51;;;;;;;5.72;3.67;;;19.20;99.90;;;;;;6039119;23;19999;-90
2021/06/26 04:31:17;;;;;;;6.65;4.35;;;19.30;99.90;;;;;;6012564;23;20023;-90
2021/06/26 04:33:42;;;;;;;5.90;3.60;;;19.40;99.90;;;;;;6038091;23;20484;-90
2021/06/26 04:36:13;;;;;;;5.75;3.50;;;19.40;99.90;;;;;;6011782;23;20094;-89
2021/06/26 04:38:38;;;;;;;;;;;19.40;99.90;;;;;;6037735;23;20058;-90
2021/06/26 04:41:04;;;;;;;5.47;4.03;;;19.50;99.90;;;;;;6039107;23;19902;-90
2021/06/26 04:43:30;;;;;;;7.13;3.78;;;19.40;99.90;;;;;;6037524;23;20038;-91
2021/06/26 04:45:55;;;;;;;5.72;3.80;;;19.50;99.90;;;;;;6037081;23;20007;-90
2021/06/26 04:48:21;;;;;;;6.05;4.03;;;19.50;99.90;;;;;;6038582;23;20018;-89
2021/06/26 04:50:47;;;;;;;7.55;4.03;;;19.70;99.90;;;;;;6012692;23;20091;-90
2021/06/26 04:53:13;;;;;;;6.07;3.67;;;19.80;99.90;;;;;;6038751;23;20103;-90
2021/06/26 04:55:39;;;;;;;4.28;3.70;;;19.80;99.90;;;;;;6036801;23;20062;-89
2021/06/26 04:58:04;;;;;;;4.40;3.08;;;19.90;99.90;;;;;;6037290;23;20015;-90
2021/06/26 05:00:30;;;;;;;5.75;3.67;;;19.80;99.90;;;;;;6037522;23;20014;-89
2021/06/26 05:02:56;;;;;;;5.20;4.07;;;19.90;99.90;;;;;;6038604;23;20437;-90
2021/06/26 05:05:21;;;;;;;5.85;4.00;;;20.00;99.90;;;;;;6038182;23;20022;-90
2021/06/26 05:07:47;;;;;;;6.18;3.67;;;20.10;99.90;;;;;;6037858;23;20027;-89
2021/06/26 05:10:14;;;;;;;4.72;3.35;;;20.30;99.90;;;;;;6012854;23;20015;-89
2021/06/26 05:12:44;;;;;;;4.82;3.17;;;20.50;99.90;;;;;;6015688;23;20424;-89
2021/06/26 05:15:11;;;;;;;4.63;3.22;;;20.60;99.90;;;;;;6014479;23;20014;-90
2021/06/26 05:17:37;;;;;;;4.75;2.97;;;20.60;99.90;;;;;;6038009;23;20005;-89
2021/06/26 05:20:04;;;;;;;6.78;3.80;;;20.70;99.90;;;;;;6037643;23;20011;-90
2021/06/26 05:22:30;;;;;;;4.95;3.60;;;20.80;99.90;;;;;;6012850;23;20007;-90
2021/06/26 05:24:56;;;;;;;3.95;3.55;;;20.90;99.90;;;;;;6036496;23;20126;-91
2021/06/26 05:27:22;;;;;;;8.50;3.78;;;21.10;99.90;;;;;;6038042;23;20027;-88
2021/06/26 05:29:48;;;;;;;5.57;3.70;;;21.20;99.90;;;;;;6013680;23;20400;-88
2021/06/26 05:32:14;;;;;;;3.78;3.47;;;21.30;99.90;;;;;;6038595;23;20004;-91
2021/06/26 05:34:39;;;;;;;7.82;3.83;;;21.30;99.90;;;;;;6038480;23;20015;-88
2021/06/26 05:37:05;;;;;;;5.55;3.78;;;21.30;99.90;;;;;;6037825;23;20019;-91
2021/06/26 05:39:32;;;;;;;6.63;3.60;;;21.30;99.90;;;;;;6038483;23;20026;-90
2021/06/26 05:41:58;;;;;;;7.50;3.30;;;21.20;99.90;;;;;;6037976;23;20015;-90
2021/06/26 05:44:24;;;;;;;5.88;3.58;;;21.40;99.90;;;;;;6013834;23;20004;-89
2021/06/26 05:46:49;;;;;;;4.60;3.33;;;21.50;99.90;;;;;;6013602;23;20011;-90
2021/06/26 05:49:15;;;;;;;5.93;3.53;;;21.60;99.90;;;;;;6038554;23;20013;-90
2021/06/26 05:51:41;;;;;;;3.60;3.25;;;21.70;99.90;;;;;;6038491;23;20007;-90
2021/06/26 05:54:06;;;;;;;5.65;3.50;;;21.70;99.90;;;;;;6038771;23;20004;-90
2021/06/26 05:56:32;;;;;;;6.15;3.33;;;21.90;99.90;;;;;;6038652;23;20086;-91
2021/06/26 05:58:58;;;;;;;3.70;3.30;;;21.80;99.90;;;;;;6038431;23;19999;-89
2021/06/26 06:01:24;;;;;;;7.20;3.78;;;21.80;99.90;;;;;;6013622;23;20102;-91
2021/06/26 06:03:52;;;;;;;5.85;3.65;;;21.70;99.90;;;;;;6038955;23;20066;-90
2021/06/26 06:06:18;;;;;;;6.75;3.22;;;21.70;99.90;;;;;;6038673;23;20026;-91
2021/06/26 06:08:43;;;;;;;6.55;3.55;;;21.70;99.90;;;;;;6013060;23;20444;-87
2021/06/26 06:11:09;;;;;;;6.72;3.33;;;21.80;99.90;;;;;;6037549;23;20016;-90
2021/06/26 06:13:35;;;;;;;7.60;3.25;;;21.90;99.90;;;;;;6038651;23;20010;-90
2021/06/26 06:16:00;;;;;;;3.50;3.20;;;21.90;99.90;;;;;;6013412;23;20861;-90
2021/06/26 06:18:26;;;;;;;6.30;3.30;;;22.00;99.90;;;;;;6013081;23;20424;-90
2021/06/26 06:20:52;;;;;;;6.05;3.20;;;21.90;99.90;;;;;;6039002;23;20408;-89
2021/06/26 06:23:18;;;;;;;5.22;3.80;;;21.70;99.90;;;;;;6038382;23;20014;-87
2021/06/26 06:25:43;;;;;;;6.07;2.95;;;21.80;99.90;;;;;;6043473;23;20007;-88
2021/06/26 06:28:09;;;;;;;5.63;3.10;;;22.00;99.90;;;;;;6041698;23;20036;-89
2021/06/26 06:30:35;;;;;;;5.90;3.22;;;22.00;99.90;;;;;;6038633;23;20424;-90
2021/06/26 06:33:02;;;;;;;5.00;3.13;;;22.10;99.90;;;;;;6038765;23;20003;-89
2021/06/26 06:35:28;;;;;;;7.60;3.50;;;22.30;99.90;;;;;;6008137;23;20348;-90
2021/06/26 06:37:54;;;;;;;5.97;3.50;;;22.40;99.90;;;;;;6008959;23;20019;-91
2021/06/26 06:40:21;;;;;;;5.60;3.15;;;22.30;99.90;;;;;;6008473;23;20012;-90
2021/06/26 06:42:47;;;;;;;5.75;3.67;;;22.40;99.90;;;;;;6010441;23;20004;-91
2021/06/26 06:45:13;;;;;;;4.85;3.97;;;22.60;99.90;;;;;;6009318;23;20012;-90
2021/06/26 06:47:39;;;;;;;4.63;3.28;;;22.50;99.90;;;;;;6007915;23;20436;-90
2021/06/26 06:50:07;;;;;;;4.28;3.10;;;22.70;99.90;;;;;;6031722;23;20048;-89
2021/06/26 06:52:33;;;;;;;6.35;3.10;;;22.70;99.90;;;;;;6009095;23;20012;-90
2021/06/26 06:54:59;;;;;;;5.88;3.10;;;22.80;99.90;;;;;;6009900;23;20027;-91
2021/06/26 06:57:25;;;;;;;5.63;3.78;;;22.70;99.90;;;;;;6010644;23;20007;-89
2021/06/26 06:59:54;;;;;;;4.70;3.33;;;22.70;99.90;;;;;;6010270;23;20340;-91
2021/06/26 07:02:20;;;;;;;11.98;4.07;;;22.70;99.90;;;;;;6009850;23;20115;-91
2021/06/26 07:04:47;;;;;;;7.22;3.58;;;22.80;99.90;;;;;;6008752;23;20011;-90
2021/06/26 07:07:13;;;;;;;6.15;3.58;;;22.70;99.90;;;;;;6008476;23;20007;-90
2021/06/26 07:09:39;;;;;;;3.45;2.95;;;22.70;99.90;;;;;;6009652;23;20091;-90
2021/06/26 07:12:05;;;;;;;4.40;3.45;;;22.70;99.90;;;;;;6032487;23;20037;-90
2021/06/26 07:14:31;;;;;;;7.20;3.22;;;22.80;99.90;;;;;;6008419;23;20003;-89
2021/06/26 07:16:57;;;;;;;5.55;3.63;;;22.80;99.90;;;;;;6009655;23;20015;-90
2021/06/26 07:19:23;;;;;;;6.85;3.42;;;22.70;99.90;;;;;;6009921;23;20003;-90
2021/06/26 07:21:48;;;;;;;5.70;3.70;;;22.60;99.90;;;;;;6009785;23;20048;-91
2021/06/26 07:24:14;;;;;;;6.70;3.50;;;22.60;99.90;;;;;;6031609;23;20462;-90
2021/06/26 07:26:40;;;;;;;4.97;3.03;;;22.70;99.90;;;;;;6030313;23;20087;-90
2021/06/26 07:29:06;;;;;;;5.28;3.08;;;22.70;99.90;;;;;;6008295;23;20008;-89
2021/06/26 07:31:32;;;;;;;5.90;3.40;;;22.90;99.90;;;;;;6009573;23;20007;-90
2021/06/26 07:33:59;;;;;;;3.53;2.97;;;23.10;99.90;;;;;;6032235;23;20015;-90
2021/06/26 07:36:25;;;;;;;5.60;3.20;;;23.20;99.90;;;;;;6030510;23;20072;-89
2021/06/26 07:38:50;;;;;;;5.22;3.40;;;23.30;99.90;;;;;;6021925;23;20003;-89
2021/06/26 07:41:16;;;;;;;4.75;2.90;;;23.40;99.90;;;;;;6014483;23;20004;-91
2021/06/26 07:43:42;;;;;;;4.80;3.28;;;23.40;99.90;;;;;;6038924;23;19999;-90
2021/06/26 07:46:08;;;;;;;5.93;3.42;;;23.50;99.90;;;;;;6032769;23;20004;-90
2021/06/26 07:48:33;;;;;;;9.35;3.78;;;23.60;99.90;;;;;;6011498;23;19999;-90
2021/06/26 07:51:00;;;;;;;4.43;3.47;;;23.60;99.90;;;;;;6011585;23;20091;-90
2021/06/26 07:53:25;;;;;;;4.55;3.15;;;23.70;99.90;;;;;;6011562;23;20098;-90
2021/06/26 07:55:51;;;;;;;3.72;3.13;;;23.70;99.90;;;;;;6036964;23;20030;-89
2021/06/26 07:58:25;;;;;;;5.22;3.15;;;23.90;99.90;;;;;;6036678;23;20749;-91
2021/06/26 08:00:52;;;;;;;3.50;2.80;;;23.80;99.90;;;;;;6035790;23;20074;-91
2021/06/26 08:03:18;;;;;;;4.53;2.80;;;23.40;99.90;;;;;;6010227;23;20012;-92
2021/06/26 08:05:45;;;;;;;5.65;3.15;;;23.20;99.90;;;;;;6011423;23;20007;-91
2021/06/26 08:08:11;;;;;;;2.97;2.38;;;23.20;99.90;;;;;;6036988;23;20011;-91
2021/06/26 08:10:38;;;;;;;4.18;2.70;;;23.20;99.90;;;;;;6036960;23;20460;-90
2021/06/26 08:13:03;;;;;;;5.25;2.38;;;23.20;99.90;;;;;;6011960;23;20047;-91
2021/06/26 08:15:30;;;;;;;4.75;2.63;;;23.30;99.90;;;;;;6036750;23;20007;-91
2021/06/26 08:17:56;;;;;;;4.15;2.40;;;23.30;99.90;;;;;;6011539;23;20007;-90
2021/06/26 08:20:23;;;;;;;5.22;2.38;;;23.20;99.90;;;;;;6036945;23;20063;-91
2021/06/26 08:22:49;;;;;;;4.15;2.53;;;23.20;99.90;;;;;;6011398;23;20010;-91
2021/06/26 08:25:15;;;;;;;4.55;3.15;;;23.20;99.90;;;;;;6011417;23;20011;-90
2021/06/26 08:27:41;;;;;;;3.63;2.60;;;23.10;99.90;;;;;;6036262;23;20336;-90
2021/06/26 08:30:07;;;;;;;3.25;2.33;;;23.20;99.90;;;;;;6033775;23;20004;-91
2021/06/26 08:32:33;;;;;;;5.95;2.55;;;23.20;99.90;;;;;;6010680;23;20395;-91
2021/06/26 08:34:58;;;;;;;3.78;2.78;;;23.30;99.90;;;;;;6012507;23;20034;-89
2021/06/26 08:37:24;;;;;;;4.85;2.55;;;23.30;99.90;;;;;;6036309;23;20035;-90
2021/06/26 08:39:50;;;;;;;7.70;2.22;;;23.30;99.90;;;;;;6038068;23;20039;-90
2021/06/26 08:42:18;;;;;;;4.68;2.60;;;23.30;99.90;;;;;;6037907;23;20018;-92
2021/06/26 08:44:48;;;;;;;3.20;2.22;;;23.40;99.90;;;;;;6013078;23;20006;-90
2021/06/26 08:47:15;;;;;;;5.05;2.20;;;23.40;99.90;;;;;;6038547;23;20334;-92
2021/06/26 08:49:40;;;;;;;3.83;2.30;;;23.50;99.90;;;;;;6040196;23;20086;-91
2021/06/26 08:52:07;;;;;;;3.10;2.30;;;23.70;99.90;;;;;;6041473;23;20007;-91
2021/06/26 08:54:32;;;;;;;4.53;2.67;;;23.80;99.90;;;;;;6013209;23;20011;-91
2021/06/26 08:56:58;;;;;;;2.83;2.28;;;23.90;99.90;;;;;;6013050;23;20381;-91
2021/06/26 08:59:24;;;;;;;6.10;2.50;;;23.90;99.90;;;;;;6013490;23;20007;-92
2021/06/26 09:01:50;;;;;;;6.20;2.25;;;24.00;99.90;;;;;;6039461;23;20074;-90
2021/06/26 09:04:18;;;;;;;3.75;2.50;;;24.10;99.90;;;;;;6039431;23;20082;-93
2021/06/26 09:06:59;;;;;;;2.65;1.80;;;24.00;99.90;;;;;;6039662;23;20340;-92
2021/06/26 09:09:29;;;;;;;5.75;2.33;;;24.10;99.90;;;;;;6039402;23;20011;-91
2021/06/26 09:12:07;;;;;;;2.90;1.90;;;24.00;99.90;;;;;;6038703;23;20011;-91
2021/06/26 09:14:34;;;;;;;3.78;2.10;;;24.10;99.90;;;;;;6039710;23;20439;-92
2021/06/26 09:17:00;;;;;;;4.47;2.65;;;24.20;99.90;;;;;;6013877;23;20015;-92
2021/06/26 09:19:28;;;;;;;2.30;1.77;;;24.20;99.90;;;;;;6014200;23;20003;-92
2021/06/26 09:22:12;;;;;;;3.85;2.42;;;24.10;99.60;;;;;;6038530;23;20007;-92
2021/06/26 09:24:46;;;;;;;3.80;2.40;;;24.10;99.90;;;;;;6036971;23;20028;-92
2021/06/26 09:27:18;;;;;;;3.58;2.45;;;24.10;99.90;;;;;;6038709;23;20131;-90
2021/06/26 09:29:52;;;;;;;4.45;2.17;;;24.20;99.90;;;;;;6012733;23;20416;-90
2021/06/26 09:32:36;;;;;;;6.28;2.70;;;24.30;99.90;;;;;;6038823;23;20004;-90
2021/06/26 09:35:02;;;;;;;3.40;2.35;;;24.40;99.50;;;;;;6014383;23;20055;-91
2021/06/26 09:37:33;;;;;;;4.38;2.47;;;24.40;99.30;;;;;;6039345;23;20011;-91
2021/06/26 09:40:01;;;;;;;3.30;2.42;;;24.40;98.80;;;;;;6039229;23;20027;-90
2021/06/26 09:42:32;;;;;;;5.18;2.83;;;24.50;99.90;;;;;;6039488;23;20027;-90
2021/06/26 09:44:58;;;;;;;3.35;2.60;;;24.70;99.90;;;;;;6014265;23;20038;-91
2021/06/26 09:47:29;;;;;;;4.60;2.17;;;24.70;99.10;;;;;;6014581;23;20090;-92
2021/06/26 09:50:17;;;;;;;5.93;2.80;;;24.90;98.00;;;;;;6039510;23;20025;-90
2021/06/26 09:52:48;;;;;;;6.05;2.78;;;24.80;98.50;;;;;;6039768;23;20015;-91
2021/06/26 09:55:18;;;;;;;4.63;2.70;;;24.50;98.40;;;;;;6014295;23;20007;-91
2021/06/26 09:57:45;;;;;;;5.30;2.60;;;24.40;99.00;;;;;;6039140;23;20015;-91
2021/06/26 10:00:12;;;;;;;5.68;3.33;;;24.00;98.90;;;;;;6014510;23;20097;-90
2021/06/26 10:02:38;;;;;;;7.53;2.70;;;24.10;99.40;;;;;;6041584;23;19999;-90
2021/06/26 10:05:04;;;;;;;6.22;2.55;;;24.20;99.20;;;;;;6041647;23;20003;-93
2021/06/26 10:07:31;;;;;;;4.47;2.10;;;24.10;97.20;;;;;;6014157;23;20040;-92
2021/06/26 10:09:57;;;;;;;3.10;2.63;;;24.20;99.40;;;;;;6039088;23;20003;-92
2021/06/26 10:12:23;;;;;;;3.47;2.17;;;24.30;99.90;;;;;;6013935;23;20011;-92
2021/06/26 10:14:49;;;;;;;2.55;1.67;;;24.20;98.10;;;;;;6013786;23;20042;-92
2021/06/26 10:17:15;;;;;;;4.00;2.15;;;24.10;97.20;;;;;;6039048;23;20022;-90
2021/06/26 10:19:42;;;;;;;3.25;1.77;;;24.10;98.60;;;;;;6039717;23;20007;-92
2021/06/26 10:22:08;;;;;;;4.53;1.90;;;24.30;98.10;;;;;;6039061;23;20003;-91
2021/06/26 10:24:35;;;;;;;3.33;2.08;;;24.40;96.70;;;;;;6040183;23;20003;-92
2021/06/26 10:27:01;;;;;;;6.43;2.60;;;24.70;96.40;;;;;;6038968;23;20555;-92
2021/06/26 10:29:29;;;;;;;4.00;2.53;;;24.60;96.90;;;;;;6039159;23;20023;-92
2021/06/26 10:31:55;;;;;;;3.03;2.15;;;24.60;97.00;;;;;;6014287;23;20410;-91
2021/06/26 10:34:25;;;;;;;3.55;2.30;;;24.50;96.10;;;;;;6039241;23;20013;-88
2021/06/26 10:36:54;;;;;;;4.35;2.08;;;24.50;97.70;;;;;;6042441;23;20030;-88
2021/06/26 10:39:28;;;;;;;2.42;1.63;;;24.40;98.20;;;;;;6039902;23;20434;-91
2021/06/26 10:42:10;;;;;;;4.20;2.10;;;24.30;97.30;;;;;;6039437;23;20003;-93
2021/06/26 10:44:50;;;;;;;6.47;2.05;;;24.10;97.50;;;;;;6038588;23;20010;-91
2021/06/26 10:47:37;;;;;;;2.50;2.08;;;24.00;97.60;;;;;;6037453;23;20014;-91
2021/06/26 10:50:17;;;;;;;3.55;1.90;;;23.80;98.40;;;;;;6013362;23;20004;-92
2021/06/26 10:52:50;;;;;;;5.00;1.95;;;23.90;98.90;;;;;;6038678;23;20004;-91
2021/06/26 10:55:26;;;;;;;4.53;1.88;;;24.10;98.30;;;;;;6039157;23;20082;-90
2021/06/26 10:57:52;;;;;;;3.53;1.98;;;24.40;99.10;;;;;;6039082;23;20344;-92
2021/06/26 11:00:18;;;;;;;5.25;2.30;;;24.50;98.20;;;;;;6038624;23;20039;-90
2021/06/26 11:02:45;;;;;;;3.80;2.47;;;24.40;97.30;;;;;;6013756;23;20332;-91
2021/06/26 11:05:12;;;;;;;4.38;2.25;;;24.30;97.40;;;;;;6038618;23;20008;-92
2021/06/26 11:07:39;;;;;;;3.38;2.17;;;24.30;98.60;;;;;;6038655;23;19999;-91
2021/06/26 11:10:12;;;;;;;3.90;2.55;;;24.50;98.00;;;;;;6037888;23;20015;-92
2021/06/26 11:12:48;;;;;;;3.00;2.00;;;24.60;97.20;;;;;;6035820;23;20424;-90
2021/06/26 11:15:28;;;;;;;4.13;2.03;;;24.60;96.90;;;;;;6038853;23;20007;-91
2021/06/26 11:17:54;;;;;;;3.72;2.20;;;24.60;95.90;;;;;;6038486;23;20028;-90
2021/06/26 11:20:21;;;;;;;3.85;2.10;;;24.60;95.70;;;;;;6012831;23;20034;-89
2021/06/26 11:23:01;;;;;;;5.03;2.70;;;24.40;96.10;;;;;;6038439;23;20003;-90
2021/06/26 11:25:32;;;;;;;2.88;2.08;;;24.20;97.10;;;;;;6038183;23;20003;-87
2021/06/26 11:28:10;;;;;;;3.08;2.30;;;24.40;96.80;;;;;;6038087;23;20078;-90
2021/06/26 11:30:37;;;;;;;2.63;2.30;;;24.60;96.80;;;;;;6038000;23;20042;-89
2021/06/26 11:33:03;;;;;;;2.95;2.30;;;24.60;97.30;;;;;;6037946;23;19999;-91
2021/06/26 11:35:41;;;;;;;3.83;2.55;;;24.60;97.00;;;;;;6037753;23;20079;-90
2021/06/26 11:38:18;;;;;;;4.05;2.30;;;24.70;97.10;;;;;;6038312;23;20003;-90
2021/06/26 11:40:45;;;;;;;3.80;2.10;;;24.80;96.80;;;;;;6014406;23;20008;-92
2021/06/26 11:43:11;;;;;;;4.03;2.20;;;24.90;96.10;;;;;;6015447;23;20003;-92
2021/06/26 11:45:44;;;;;;;3.45;2.30;;;24.90;95.90;;;;;;6041948;23;20003;-91
2021/06/26 11:48:15;;;;;;;2.65;2.25;;;24.70;95.60;;;;;;6036337;23;19999;-92
2021/06/26 11:50:51;;;;;;;3.22;1.92;;;24.80;95.70;;;;;;6036744;23;20019;-91
2021/06/26 11:53:19;;;;;;;3.13;1.70;;;24.90;95.60;;;;;;6011539;23;20041;-93
2021/06/26 11:55:58;;;;;;;4.80;2.00;;;24.90;95.90;;;;;;6038630;23;20427;-90
2021/06/26 11:58:39;;;;;;;2.03;1.83;;;24.80;94.60;;;;;;6038443;23;20412;-90
2021/06/26 12:01:06;;;;;;;2.80;2.10;;;24.90;94.30;;;;;;6037998;23;20011;-90
2021/06/26 12:03:32;;;;;;;3.47;1.67;;;24.60;95.80;;;;;;6038558;23;20007;-93
2021/06/26 12:06:03;;;;;;;2.63;2.05;;;24.60;96.80;;;;;;6036489;23;19999;-93
2021/06/26 12:08:31;;;;;;;2.90;2.20;;;24.60;96.50;;;;;;6037183;23;20007;-90
2021/06/26 12:10:57;;;;;;;3.40;2.45;;;24.60;95.80;;;;;;6015130;23;20014;-92
2021/06/26 12:13:23;;;;;;;3.17;2.05;;;24.60;95.40;;;;;;6015456;23;20003;-92
2021/06/26 12:15:49;;;;;;;3.75;2.60;;;24.70;96.60;;;;;;6015163;23;20043;-91
2021/06/26 12:18:15;;;;;;;2.92;2.22;;;24.70;96.10;;;;;;6040360;23;20510;-91
2021/06/26 12:20:41;;;;;;;2.47;1.90;;;24.70;96.10;;;;;;6039860;23;20003;-91
2021/06/26 12:23:09;;;;;;;3.20;2.38;;;24.50;94.20;;;;;;6015218;23;20047;-90
2021/06/26 12:25:41;;;;;;;2.97;2.13;;;24.40;94.40;;;;;;6039935;23;20007;-89
2021/06/26 12:28:10;;;;;;;4.32;1.98;;;24.40;95.30;;;;;;6014775;23;20007;-92
2021/06/26 12:30:41;;;;;;;2.30;2.10;;;24.50;95.50;;;;;;6040189;23;20309;-91
2021/06/26 12:33:16;;;;;;;5.88;3.22;;;24.60;95.90;;;;;;6039793;23;20010;-92
2021/06/26 12:35:42;;;;;;;5.70;2.80;;;24.70;96.40;;;;;;6039864;23;20066;-91
2021/06/26 12:38:07;;;;;;;7.20;2.30;;;24.70;96.60;;;;;;6039980;23;20004;-91
2021/06/26 12:40:40;;;;;;;4.43;2.45;;;24.70;95.50;;;;;;6040498;23;20011;-90
2021/06/26 12:43:10;;;;;;;3.20;2.70;;;24.70;97.30;;;;;;6039688;23;20031;-90
2021/06/26 12:45:38;;;;;;;3.15;2.10;;;24.70;95.10;;;;;;6040121;23;20319;-89